• Join FlightAware (Why Join?)
  • Login
  • US Flag 
06:59AM EDT


 

Airport Tracker/Info


-or-


 

Live Flight TrackerFlight Track Log ✈ N43755 ✈ 19-Aug-2013 ✈ 9G2 - KMCD

Flight Track Log - Related Links

Times and Time Zones

All times are in EDT time to prevent confusion due to time zone crossing. See the N43755 flight status page for this flight to view local times or setup timezone preferences in your user account.

Time Position Orientation Groundspeed Altitude Reporting Facility
EDT Latitude Longitude Course Direction KTS MPH feet Rate Location/Type
09:36AM 43.4222 -83.8769 347° North 114 131 6,400  Level Minneapolis Center
09:37AM 43.4525 -83.8864 347° North 114 131 6,400  Level Minneapolis Center
09:38AM 43.4894 -83.9017 343° North 114 131 6,400  Level Minneapolis Center
09:39AM 43.5281 -83.9153 346° North 116 133 6,400  Level Minneapolis Center
09:40AM 43.5619 -83.9208 353° North 118 136 6,500  Climbing Minneapolis Center
09:41AM 43.5972 -83.9217 359° North 118 136 6,500  Level Minneapolis Center
09:42AM 43.6081 -84.0561 276° West 304 350 6,500  Level Minneapolis Center
09:43AM 43.6064 -84.0472 105° East 214 246 6,500 -60 Level Minneapolis Center
09:45AM 43.6441 -84.0567 350° North  Level Estimated
09:50AM 43.8508 -83.9950 350° North 148 170 6,400  Level Minneapolis Center
09:51AM 43.8817 -84.0033 349° North 116 133 6,400  Level Minneapolis Center
09:52AM 43.8956 -84.1202 350° North  Level Estimated
09:52AM 43.9169 -84.0192 342° North 114 131 6,400  Level Minneapolis Center
09:53AM 43.9315 -84.1293 350° North  Level Estimated
09:53AM 43.9539 -84.0322 346° North 112 129 6,400  Level Minneapolis Center
09:54AM 43.9674 -84.1384 350° North  Level Estimated
09:54AM 43.9853 -84.0394 351° North 114 131 6,400  Level Minneapolis Center
09:55AM 44.0034 -84.1476 350° North  Level Estimated
09:55AM 44.0189 -84.0511 346° North 116 133 6,400  Level Minneapolis Center
09:56AM 44.0531 -84.0592 350° North 117 135 6,400  Level Minneapolis Center
09:57AM 44.0844 -84.0669 350° North 116 133 6,400  Level Minneapolis Center
09:58AM 44.1183 -84.0781 347° North 117 135 6,500  Climbing Minneapolis Center
09:59AM 44.1500 -84.0875 348° North 116 133 6,500  Level Minneapolis Center
10:00AM 44.1847 -84.0994 346° North 120 138 6,500  Level Minneapolis Center
10:01AM 44.2167 -84.1072 350° North 118 136 6,500  Level Minneapolis Center
10:02AM 44.2492 -84.1178 347° North 113 130 6,500  Level Minneapolis Center
10:03AM 44.2803 -84.1275 347° North 116 133 6,500 -60 Level Minneapolis Center
10:04AM 44.3139 -84.1361 350° North 114 131 6,400  Descending Minneapolis Center
10:05AM 44.3450 -84.1442 350° North 115 132 6,500  Climbing Minneapolis Center
10:06AM 44.3775 -84.1547 347° North 112 129 6,400 -60 Descending Minneapolis Center
10:07AM 44.4094 -84.1603 353° North 116 133 6,400  Level Minneapolis Center
10:08AM 44.4428 -84.1686 350° North 114 131 6,400  Level Minneapolis Center
10:10AM 44.4744 -84.1775 349° North 116 133 6,400 -60 Level Minneapolis Center
10:11AM 44.5086 -84.1883 347° North 117 135 6,300  Descending Minneapolis Center
10:12AM 44.5411 -84.1992 347° North 114 131 6,400  Climbing Minneapolis Center
10:13AM 44.5717 -84.2086 348° North 113 130 6,400  Level Minneapolis Center
10:14AM 44.6056 -84.2178 349° North 115 132 6,400  Level Minneapolis Center
10:15AM 44.6361 -84.2278 347° North 115 132 6,400  Level Minneapolis Center
10:16AM 44.6706 -84.2392 347° North 117 135 6,400 -60 Level Minneapolis Center
10:17AM 44.7019 -84.2472 350° North 117 135 6,300  Descending Minneapolis Center
10:18AM 44.7353 -84.2611 344° North 117 135 6,400  Climbing Minneapolis Center
10:19AM 44.7658 -84.2717 346° North 115 132 6,400  Level Minneapolis Center
10:20AM 44.8000 -84.2817 348° North 117 135 6,400  Level Minneapolis Center
10:21AM 44.8317 -84.2919 347° North 119 137 6,400  Level Minneapolis Center
10:22AM 44.8653 -84.3031 347° North 116 133 6,400  Level Minneapolis Center
10:23AM 44.8997 -84.3133 348° North 118 136 6,400  Level Minneapolis Center
10:24AM 44.9317 -84.3242 346° North 120 138 6,400  Level Minneapolis Center
10:25AM 44.9653 -84.3364 346° North 117 135 6,400  Level Minneapolis Center
10:26AM 44.9969 -84.3456 348° North 117 135 6,400  Level Minneapolis Center
10:27AM 45.0314 -84.3572 347° North 118 136 6,400  Level Minneapolis Center
10:28AM 45.0633 -84.3672 348° North 118 136 6,400  Level Minneapolis Center
10:29AM 45.0975 -84.3792 346° North 119 137 6,400  Level Minneapolis Center
10:30AM 45.1297 -84.3908 346° North 120 138 6,400  Level Minneapolis Center
10:31AM 45.1639 -84.4039 345° North 119 137 6,400  Level Minneapolis Center
10:32AM 45.1961 -84.4147 347° North 120 138 6,400  Level Minneapolis Center
10:34AM 45.2347 -84.4306 344° North 118 136 6,400  Level Minneapolis Center
10:35AM 45.2697 -84.4419 347° North 119 137 6,400  Level Minneapolis Center
10:36AM 45.3014 -84.4533 346° North 119 137 6,400  Level Minneapolis Center
10:37AM 45.3356 -84.4650 347° North 118 136 6,400  Level Minneapolis Center
10:38AM 45.3672 -84.4767 345° North 118 136 6,400  Level Minneapolis Center
10:39AM 45.4028 -84.4869 349° North 121 139 6,400  Level Minneapolis Center
10:40AM 45.4383 -84.4956 350° North 121 139 6,400  Level Minneapolis Center
10:41AM 45.4706 -84.5047 349° North 119 137 6,400  Level Minneapolis Center
10:42AM 45.5056 -84.5167 347° North 121 139 6,400  Level Minneapolis Center
10:43AM 45.5469 -84.5267 350° North 121 139 6,400  Level Minneapolis Center
10:45AM 45.6056 -84.5538 342° North  Level FlightAware Approximate
10:52AM 45.8500 -84.6333 341° North  Level FlightAware Approximate
10:53AM 45.8650 -84.6371 341° North  Level Estimated
10:54AM 45.8650 -84.6371 341° North  Level Estimated
10:55AM 45.8650 -84.6371 341° North  Level Estimated
10:56AM 45.8650 -84.6371 341° North  Level Estimated
10:57AM 45.8650 -84.6371 341° North  Level Estimated